Bloomington, New York
Current Conditions -  °F | °C
As of 6:53 AM on Thursday 18 Dec 2014 (Local Time) from KPOU Reporting Station
Overcast Overcast  
Wind Chill: 32°   Ceiling: 4700
Heat Index: 38°   Visibility: 10mi
Dew Point: 23°   Wind: 8mph
Humidity: 55%   Direction: 280°W
Pressure: 29.91"   Gusts: 18mph
Location:  41.88°N, 74.04°W
Report Text: KPOU 181153Z 28007G16KT 10SM OVC047 03/M05 A2991 RMK AO2 SLP127 60000 T00331050 10050 20033 53015
Loading
Personal Weather Stations






























Interactive Weather Map New forecast layout! Learn more

10-Day Weather Forecast

Advertisements
Track Severe Weather on mobile